createdAt,value
2023-05-05T00:00:26.259Z,18.44
2023-05-05T00:01:26.219Z,18.47
2023-05-05T00:02:26.233Z,18.41
2023-05-05T00:03:26.286Z,18.38
2023-05-05T00:04:26.129Z,18.41
2023-05-05T00:05:47.096Z,18.37
2023-05-05T00:06:26.063Z,18.33
2023-05-05T00:07:26.034Z,18.34
2023-05-05T00:08:26.030Z,18.33
2023-05-05T00:09:25.972Z,18.29
2023-05-05T00:10:25.952Z,18.31
2023-05-05T00:11:46.905Z,18.31
2023-05-05T00:12:25.883Z,18.37
2023-05-05T00:13:25.855Z,18.26
2023-05-05T00:14:25.840Z,18.18
2023-05-05T00:15:25.787Z,18.23
2023-05-05T00:16:25.760Z,18.25
2023-05-05T00:17:46.747Z,18.23
2023-05-05T00:18:25.690Z,18.26
2023-05-05T00:19:25.658Z,18.31
2023-05-05T00:20:25.636Z,18.26
2023-05-05T00:21:25.602Z,18.28
2023-05-05T00:22:25.569Z,18.29
2023-05-05T00:23:46.537Z,18.28
2023-05-05T00:24:25.507Z,18.16
2023-05-05T00:25:25.478Z,18.28
2023-05-05T00:26:25.444Z,18.20
2023-05-05T00:27:25.416Z,18.18
2023-05-05T00:28:25.380Z,18.22
2023-05-05T00:29:46.360Z,18.19
2023-05-05T00:30:25.320Z,18.16
2023-05-05T00:31:25.362Z,18.16
2023-05-05T00:32:25.282Z,18.13
2023-05-05T00:33:25.229Z,18.15
2023-05-05T00:34:25.203Z,18.18
2023-05-05T00:35:46.187Z,18.15
2023-05-05T00:36:25.143Z,18.16
2023-05-05T00:37:25.113Z,18.16
2023-05-05T00:38:25.086Z,18.07
2023-05-05T00:39:25.044Z,18.08
2023-05-05T00:40:25.059Z,18.08
2023-05-05T00:41:45.974Z,18.15
2023-05-05T00:42:24.962Z,18.05
2023-05-05T00:43:24.928Z,18.15
2023-05-05T00:44:24.900Z,18.10
2023-05-05T00:45:24.898Z,18.10
2023-05-05T00:46:24.847Z,18.10
2023-05-05T00:47:45.827Z,18.16
2023-05-05T00:48:24.773Z,18.11
2023-05-05T00:49:24.749Z,18.00
2023-05-05T00:50:24.712Z,18.10
2023-05-05T00:51:24.692Z,18.08
2023-05-05T00:52:24.640Z,18.01
2023-05-05T00:53:45.616Z,17.97
2023-05-05T00:54:24.582Z,18.03
2023-05-05T00:55:24.557Z,18.03
2023-05-05T00:56:24.518Z,17.95
2023-05-05T00:57:24.488Z,17.97
2023-05-05T00:58:24.455Z,17.92
2023-05-05T00:59:45.426Z,17.87
2023-05-05T01:00:24.403Z,17.86
2023-05-05T01:01:24.404Z,17.89
2023-05-05T01:02:24.340Z,17.85
2023-05-05T01:03:24.375Z,17.79
2023-05-05T01:04:24.270Z,17.78
2023-05-05T01:05:45.236Z,17.79
2023-05-05T01:06:24.208Z,17.79
2023-05-05T01:07:24.183Z,17.86
2023-05-05T01:08:24.146Z,17.78
2023-05-05T01:09:24.113Z,17.79
2023-05-05T01:10:24.268Z,17.82
2023-05-05T01:11:45.048Z,17.67
2023-05-05T01:12:24.020Z,17.72
2023-05-05T01:13:23.988Z,17.67
2023-05-05T01:14:23.955Z,17.71
2023-05-05T01:15:23.921Z,17.60
2023-05-05T01:16:24.078Z,17.68
2023-05-05T01:17:44.953Z,17.67
2023-05-05T01:18:23.829Z,17.63
2023-05-05T01:19:23.817Z,17.56
2023-05-05T01:20:23.789Z,17.63
2023-05-05T01:21:23.735Z,17.48
2023-05-05T01:22:23.705Z,17.51
2023-05-05T01:23:44.668Z,17.52
2023-05-05T01:24:23.647Z,17.49
2023-05-05T01:25:23.612Z,17.45
2023-05-05T01:26:23.579Z,17.44
2023-05-05T01:27:23.546Z,17.51
2023-05-05T01:28:23.524Z,17.31
2023-05-05T01:29:44.480Z,17.31
2023-05-05T01:30:23.454Z,17.29
2023-05-05T01:31:23.444Z,17.42
2023-05-05T01:32:23.405Z,17.45
2023-05-05T01:33:23.367Z,17.42
2023-05-05T01:34:23.324Z,17.39
2023-05-05T01:35:44.293Z,17.34
2023-05-05T01:36:23.260Z,17.39
2023-05-05T01:37:23.236Z,17.29
2023-05-05T01:38:23.205Z,17.26
2023-05-05T01:39:23.176Z,17.27
2023-05-05T01:40:23.163Z,17.24
2023-05-05T01:41:44.112Z,17.24
2023-05-05T01:42:23.076Z,17.22
2023-05-05T01:43:23.042Z,17.26
2023-05-05T01:44:23.008Z,17.14
2023-05-05T01:45:22.977Z,17.15
2023-05-05T01:46:22.984Z,17.14
2023-05-05T01:47:43.911Z,17.12
2023-05-05T01:48:22.893Z,17.06
2023-05-05T01:49:23.073Z,17.06
2023-05-05T01:50:22.817Z,17.04
2023-05-05T01:51:22.788Z,17.08
2023-05-05T01:52:22.768Z,17.05
2023-05-05T01:53:43.727Z,17.02
2023-05-05T01:54:22.692Z,16.96
2023-05-05T01:55:22.671Z,17.06
2023-05-05T01:56:22.628Z,16.99
2023-05-05T01:57:22.594Z,16.89
2023-05-05T01:58:22.578Z,16.96
2023-05-05T01:59:43.546Z,16.86
2023-05-05T02:00:22.520Z,16.90
2023-05-05T02:01:22.502Z,16.90
2023-05-05T02:02:22.499Z,16.81
2023-05-05T02:03:22.507Z,16.78
2023-05-05T02:04:22.372Z,16.81
2023-05-05T02:05:43.338Z,16.83
2023-05-05T02:06:22.327Z,16.72
2023-05-05T02:07:22.286Z,16.71
2023-05-05T02:08:22.241Z,16.74
2023-05-05T02:09:22.209Z,16.76
2023-05-05T02:10:22.183Z,16.69
2023-05-05T02:11:43.142Z,16.66
2023-05-05T02:12:22.117Z,16.66
2023-05-05T02:13:22.161Z,16.74
2023-05-05T02:14:22.055Z,16.76
2023-05-05T02:15:22.028Z,16.69
2023-05-05T02:16:22.078Z,16.71
2023-05-05T02:17:42.978Z,16.72
2023-05-05T02:18:21.930Z,16.66
2023-05-05T02:19:21.903Z,16.64
2023-05-05T02:20:21.866Z,16.66
2023-05-05T02:21:21.837Z,16.68
2023-05-05T02:22:21.805Z,16.72
2023-05-05T02:23:42.765Z,16.64
2023-05-05T02:24:21.737Z,16.65
2023-05-05T02:25:21.704Z,16.65
2023-05-05T02:26:21.683Z,16.50
2023-05-05T02:27:21.662Z,16.65
2023-05-05T02:28:21.635Z,16.66
2023-05-05T02:29:42.586Z,16.60
2023-05-05T02:30:21.547Z,16.66
2023-05-05T02:31:21.559Z,16.66
2023-05-05T02:32:21.507Z,16.66
2023-05-05T02:33:21.451Z,16.60
2023-05-05T02:34:21.419Z,16.61
2023-05-05T02:35:42.390Z,16.57
2023-05-05T02:36:21.368Z,16.66
2023-05-05T02:37:21.332Z,16.66
2023-05-05T02:38:21.287Z,16.64
2023-05-05T02:39:21.274Z,16.64
2023-05-05T02:40:21.229Z,16.65
2023-05-05T02:41:42.191Z,16.71
2023-05-05T02:42:21.182Z,16.71
2023-05-05T02:43:21.159Z,16.58
2023-05-05T02:44:21.101Z,16.69
2023-05-05T02:45:21.065Z,16.64
2023-05-05T02:46:21.094Z,16.64
2023-05-05T02:47:42.021Z,16.60
2023-05-05T02:48:20.972Z,16.54
2023-05-05T02:49:20.937Z,16.54
2023-05-05T02:50:20.918Z,16.58
2023-05-05T02:51:20.868Z,16.54
2023-05-05T02:52:20.848Z,16.50
2023-05-05T02:53:41.807Z,16.49
2023-05-05T02:54:20.801Z,16.54
2023-05-05T02:55:20.740Z,16.47
2023-05-05T02:56:20.719Z,16.43
2023-05-05T02:57:20.680Z,16.51
2023-05-05T02:58:20.643Z,16.46
2023-05-05T02:59:41.616Z,16.42
2023-05-05T03:00:20.577Z,16.41
2023-05-05T03:01:20.564Z,16.41
2023-05-05T03:02:20.575Z,16.43
2023-05-05T03:03:20.532Z,16.42
2023-05-05T03:04:20.451Z,16.38
2023-05-05T03:05:41.427Z,16.42
2023-05-05T03:06:20.402Z,16.31
2023-05-05T03:07:20.354Z,16.28
2023-05-05T03:08:20.336Z,16.36
2023-05-05T03:09:20.292Z,16.35
2023-05-05T03:10:20.261Z,16.31
2023-05-05T03:11:41.228Z,16.28
2023-05-05T03:12:20.199Z,16.13
2023-05-05T03:13:20.167Z,16.09
2023-05-05T03:14:20.140Z,16.13
2023-05-05T03:15:20.097Z,16.08
2023-05-05T03:16:20.108Z,16.10
2023-05-05T03:17:41.058Z,16.13
2023-05-05T03:18:20.012Z,16.10
2023-05-05T03:19:19.968Z,16.26
2023-05-05T03:20:19.936Z,16.20
2023-05-05T03:21:19.907Z,16.13
2023-05-05T03:22:19.872Z,16.15
2023-05-05T03:23:40.839Z,16.12
2023-05-05T03:24:19.803Z,16.10
2023-05-05T03:25:19.774Z,16.08
2023-05-05T03:26:19.741Z,16.04
2023-05-05T03:27:19.707Z,16.10
2023-05-05T03:28:19.681Z,16.05
2023-05-05T03:29:40.640Z,16.09
2023-05-05T03:30:19.613Z,16.09
2023-05-05T03:31:19.670Z,16.04
2023-05-05T03:32:19.549Z,16.08
2023-05-05T03:33:19.515Z,16.10
2023-05-05T03:34:19.480Z,16.04
2023-05-05T03:35:40.452Z,16.12
2023-05-05T03:36:19.424Z,16.02
2023-05-05T03:37:19.383Z,16.05
2023-05-05T03:38:19.361Z,15.98
2023-05-05T03:39:19.345Z,16.09
2023-05-05T03:40:19.291Z,16.01
2023-05-05T03:41:40.252Z,16.02
2023-05-05T03:42:19.219Z,16.00
2023-05-05T03:43:19.188Z,16.02
2023-05-05T03:44:19.162Z,16.09
2023-05-05T03:45:19.120Z,15.95
2023-05-05T03:46:19.217Z,16.00
2023-05-05T03:47:40.119Z,15.97
2023-05-05T03:48:19.029Z,16.00
2023-05-05T03:49:18.996Z,15.92
2023-05-05T03:50:18.962Z,16.00
2023-05-05T03:51:18.933Z,15.91
2023-05-05T03:52:18.908Z,16.01
2023-05-05T03:53:39.897Z,15.91
2023-05-05T03:54:18.829Z,15.98
2023-05-05T03:55:18.803Z,15.97
2023-05-05T03:56:18.774Z,15.98
2023-05-05T03:57:18.756Z,15.98
2023-05-05T03:58:18.706Z,15.97
2023-05-05T03:59:39.680Z,16.02
2023-05-05T04:00:18.657Z,15.92
2023-05-05T04:01:18.603Z,15.97
2023-05-05T04:02:19.027Z,16.00
2023-05-05T04:03:18.716Z,15.97
2023-05-05T04:04:18.586Z,16.00
2023-05-05T04:05:39.477Z,16.00
2023-05-05T04:06:18.448Z,15.98
2023-05-05T04:07:18.416Z,15.92
2023-05-05T04:08:18.394Z,15.94
2023-05-05T04:09:18.364Z,15.92
2023-05-05T04:10:18.322Z,15.92
2023-05-05T04:11:39.367Z,15.90
2023-05-05T04:12:18.260Z,15.95
2023-05-05T04:13:18.276Z,15.97
2023-05-05T04:14:18.191Z,15.98
2023-05-05T04:15:18.156Z,15.95
2023-05-05T04:16:18.146Z,16.02
2023-05-05T04:17:39.108Z,15.98
2023-05-05T04:18:18.057Z,15.94
2023-05-05T04:19:18.028Z,15.94
2023-05-05T04:20:17.996Z,15.92
2023-05-05T04:21:17.959Z,16.05
2023-05-05T04:22:17.927Z,15.97
2023-05-05T04:23:38.890Z,16.01
2023-05-05T04:24:17.863Z,15.95
2023-05-05T04:25:17.833Z,15.98
2023-05-05T04:26:17.807Z,15.94
2023-05-05T04:27:17.765Z,15.95
2023-05-05T04:28:18.216Z,16.01
2023-05-05T04:29:38.716Z,15.95
2023-05-05T04:30:17.675Z,15.98
2023-05-05T04:31:17.666Z,16.01
2023-05-05T04:32:17.618Z,15.97
2023-05-05T04:33:17.574Z,15.98
2023-05-05T04:34:17.535Z,15.98
2023-05-05T04:35:38.498Z,15.97
2023-05-05T04:36:17.473Z,15.98
2023-05-05T04:37:17.439Z,16.01
2023-05-05T04:38:17.440Z,16.00
2023-05-05T04:39:17.375Z,16.04
2023-05-05T04:40:17.338Z,15.97
2023-05-05T04:41:38.309Z,16.01
2023-05-05T04:42:17.290Z,16.02
2023-05-05T04:43:17.256Z,15.98
2023-05-05T04:44:17.205Z,16.00
2023-05-05T04:45:17.196Z,16.01
2023-05-05T04:46:17.181Z,15.95
2023-05-05T04:47:38.148Z,15.98
2023-05-05T04:48:17.084Z,15.97
2023-05-05T04:49:17.048Z,16.00
2023-05-05T04:50:17.018Z,16.05
2023-05-05T04:51:16.988Z,16.02
2023-05-05T04:52:16.953Z,16.08
2023-05-05T04:53:37.924Z,16.00
2023-05-05T04:54:16.888Z,16.12
2023-05-05T04:55:16.847Z,16.04
2023-05-05T04:56:16.822Z,16.08
2023-05-05T04:57:16.791Z,16.05
2023-05-05T04:58:16.762Z,16.00
2023-05-05T04:59:37.733Z,16.12
2023-05-05T05:00:16.691Z,16.00
2023-05-05T05:01:16.659Z,16.09
2023-05-05T05:02:16.720Z,16.10
2023-05-05T05:03:16.689Z,16.09
2023-05-05T05:04:16.564Z,16.13
2023-05-05T05:05:37.533Z,16.04
2023-05-05T05:06:16.503Z,16.09
2023-05-05T05:07:16.467Z,16.17
2023-05-05T05:08:16.452Z,16.23
2023-05-05T05:09:16.403Z,16.16
2023-05-05T05:10:16.375Z,16.23
2023-05-05T05:11:37.335Z,16.23
2023-05-05T05:12:16.311Z,16.16
2023-05-05T05:13:16.288Z,16.29
2023-05-05T05:14:16.245Z,16.09
2023-05-05T05:15:16.206Z,16.31
2023-05-05T05:16:16.171Z,16.29
2023-05-05T05:17:37.205Z,16.28
2023-05-05T05:18:16.115Z,16.35
2023-05-05T05:19:16.077Z,16.29
2023-05-05T05:20:16.064Z,16.29
2023-05-05T05:21:16.019Z,16.35
2023-05-05T05:22:15.973Z,16.33
2023-05-05T05:23:36.943Z,16.41
2023-05-05T05:24:15.910Z,16.43
2023-05-05T05:25:15.876Z,16.38
2023-05-05T05:26:15.848Z,16.39
2023-05-05T05:27:15.821Z,16.43
2023-05-05T05:28:15.787Z,16.42
2023-05-05T05:29:36.753Z,16.49
2023-05-05T05:30:15.714Z,16.49
2023-05-05T05:31:15.684Z,16.53
2023-05-05T05:32:15.837Z,16.51
2023-05-05T05:33:15.632Z,16.57
2023-05-05T05:34:15.591Z,16.54
2023-05-05T05:35:36.558Z,16.56
2023-05-05T05:36:15.531Z,16.64
2023-05-05T05:37:15.496Z,16.64
2023-05-05T05:38:15.460Z,16.66
2023-05-05T05:39:15.427Z,16.66
2023-05-05T05:40:15.402Z,16.71
2023-05-05T05:41:36.362Z,16.68
2023-05-05T05:42:15.338Z,16.71
2023-05-05T05:43:15.298Z,16.69
2023-05-05T05:44:15.271Z,16.71
2023-05-05T05:45:15.236Z,16.71
2023-05-05T05:46:15.243Z,16.72
2023-05-05T05:47:36.198Z,16.79
2023-05-05T05:48:15.151Z,16.72
2023-05-05T05:49:15.114Z,16.86
2023-05-05T05:50:15.074Z,16.81
2023-05-05T05:51:15.047Z,16.78
2023-05-05T05:52:15.010Z,16.86
2023-05-05T05:53:35.971Z,16.87
2023-05-05T05:54:14.945Z,16.87
2023-05-05T05:55:14.914Z,16.89
2023-05-05T05:56:14.878Z,16.91
2023-05-05T05:57:14.851Z,17.02
2023-05-05T05:58:14.814Z,16.97
2023-05-05T05:59:35.781Z,16.99
2023-05-05T06:00:14.753Z,17.04
2023-05-05T06:01:14.718Z,16.97
2023-05-05T06:02:14.716Z,16.97
2023-05-05T06:03:14.919Z,17.04
2023-05-05T06:04:14.667Z,16.99
2023-05-05T06:05:35.588Z,17.01
2023-05-05T06:06:14.576Z,17.08
2023-05-05T06:07:14.549Z,17.08
2023-05-05T06:08:14.495Z,17.12
2023-05-05T06:09:14.462Z,17.14
2023-05-05T06:10:26.737Z,17.11
2023-05-05T06:11:35.395Z,17.15
2023-05-05T06:12:14.365Z,17.11
2023-05-05T06:13:14.385Z,17.23
2023-05-05T06:14:14.304Z,17.19
2023-05-05T06:15:14.275Z,17.23
2023-05-05T06:16:14.309Z,17.24
2023-05-05T06:17:35.211Z,17.26
2023-05-05T06:18:14.197Z,17.34
2023-05-05T06:19:14.145Z,17.36
2023-05-05T06:20:14.121Z,17.39
2023-05-05T06:21:14.080Z,17.38
2023-05-05T06:22:14.045Z,17.41
2023-05-05T06:23:35.016Z,17.48
2023-05-05T06:24:13.983Z,17.44
2023-05-05T06:25:13.963Z,17.48
2023-05-05T06:26:13.922Z,17.51
2023-05-05T06:27:13.908Z,17.49
2023-05-05T06:28:13.866Z,17.56
2023-05-05T06:29:34.834Z,17.59
2023-05-05T06:30:13.794Z,17.59
2023-05-05T06:31:13.830Z,17.67
2023-05-05T06:32:13.732Z,17.63
2023-05-05T06:33:13.703Z,17.65
2023-05-05T06:34:13.671Z,17.72
2023-05-05T06:35:34.644Z,17.65
2023-05-05T06:36:13.649Z,17.72
2023-05-05T06:37:13.582Z,17.80
2023-05-05T06:38:13.556Z,17.72
2023-05-05T06:39:15.821Z,17.72
2023-05-05T06:40:13.491Z,17.74
2023-05-05T06:41:34.446Z,17.82
2023-05-05T06:42:13.431Z,17.83
2023-05-05T06:43:13.397Z,17.86
2023-05-05T06:44:13.367Z,17.80
2023-05-05T06:45:13.331Z,17.90
2023-05-05T06:46:13.319Z,18.01
2023-05-05T06:47:34.324Z,18.00
2023-05-05T06:48:13.225Z,18.10
2023-05-05T06:49:13.202Z,18.10
2023-05-05T06:50:13.177Z,18.11
2023-05-05T06:51:13.138Z,18.13
2023-05-05T06:52:13.116Z,18.07
2023-05-05T06:53:34.321Z,18.10
2023-05-05T06:54:13.045Z,18.20
2023-05-05T06:55:13.023Z,18.29
2023-05-05T06:56:12.981Z,18.35
2023-05-05T06:57:12.954Z,18.43
2023-05-05T06:58:12.922Z,18.47
2023-05-05T06:59:33.892Z,18.44
2023-05-05T07:00:12.860Z,18.41
2023-05-05T07:01:12.892Z,18.43
2023-05-05T07:02:12.792Z,18.55
2023-05-05T07:03:12.830Z,18.43
2023-05-05T07:04:12.830Z,18.45
2023-05-05T07:05:33.701Z,18.40
2023-05-05T07:06:12.673Z,18.45
2023-05-05T07:07:12.642Z,18.53
2023-05-05T07:08:12.608Z,18.43
2023-05-05T07:09:12.672Z,18.43
2023-05-05T07:10:12.557Z,18.55
2023-05-05T07:11:33.609Z,18.38
2023-05-05T07:12:12.488Z,18.37
2023-05-05T07:13:12.567Z,18.35
2023-05-05T07:14:12.424Z,18.45
2023-05-05T07:15:23.371Z,18.60
2023-05-05T07:16:12.372Z,18.56
2023-05-05T07:17:33.366Z,18.66
2023-05-05T07:18:12.324Z,18.73
2023-05-05T07:19:12.281Z,18.78
2023-05-05T07:20:12.253Z,18.77
2023-05-05T07:21:12.209Z,18.92
2023-05-05T07:22:12.181Z,18.84
2023-05-05T07:23:33.146Z,18.80
2023-05-05T07:24:12.125Z,18.83
2023-05-05T07:25:12.217Z,18.88
2023-05-05T07:26:12.064Z,18.93
2023-05-05T07:27:12.018Z,18.96
2023-05-05T07:28:12.002Z,18.93
2023-05-05T07:29:32.961Z,18.90
2023-05-05T07:30:15.382Z,19.02
2023-05-05T07:31:11.897Z,19.00
2023-05-05T07:32:11.885Z,19.09
2023-05-05T07:33:11.878Z,19.11
2023-05-05T07:34:11.814Z,19.07
2023-05-05T07:35:32.785Z,19.11
2023-05-05T07:36:11.748Z,19.18
2023-05-05T07:37:11.715Z,19.07
2023-05-05T07:38:11.693Z,19.15
2023-05-05T07:39:11.659Z,19.16
2023-05-05T07:40:11.737Z,19.27
2023-05-05T07:41:32.662Z,19.15
2023-05-05T07:42:11.562Z,19.21
2023-05-05T07:43:11.543Z,19.31
2023-05-05T07:44:11.522Z,19.31
2023-05-05T07:45:11.464Z,19.40
2023-05-05T07:46:11.521Z,19.41
2023-05-05T07:47:32.423Z,19.39
2023-05-05T07:48:11.378Z,19.44
2023-05-05T07:49:11.429Z,19.40
2023-05-05T07:50:11.573Z,19.39
2023-05-05T07:51:11.287Z,19.52
2023-05-05T07:52:11.259Z,19.56
2023-05-05T07:53:32.224Z,19.58
2023-05-05T07:54:11.192Z,19.59
2023-05-05T07:55:11.165Z,19.58
2023-05-05T07:56:11.138Z,19.59
2023-05-05T07:57:11.234Z,19.66
2023-05-05T07:58:11.103Z,19.58
2023-05-05T07:59:32.045Z,19.66
2023-05-05T08:00:11.424Z,19.63
2023-05-05T08:01:11.026Z,19.59
2023-05-05T08:02:10.970Z,19.55
2023-05-05T08:03:12.159Z,19.67
2023-05-05T08:04:10.936Z,19.71
2023-05-05T08:05:31.867Z,19.76
2023-05-05T08:06:10.853Z,19.74
2023-05-05T08:07:10.805Z,19.94
2023-05-05T08:08:10.772Z,19.86
2023-05-05T08:09:10.744Z,19.94
2023-05-05T08:10:10.719Z,19.92
2023-05-05T08:11:31.679Z,19.91
2023-05-05T08:12:10.651Z,19.91
2023-05-05T08:13:10.783Z,19.94
2023-05-05T08:14:10.610Z,19.99
2023-05-05T08:15:10.781Z,20.02
2023-05-05T08:16:10.549Z,19.86
2023-05-05T08:17:31.523Z,19.91
2023-05-05T08:18:10.474Z,20.02
2023-05-05T08:19:21.101Z,20.10
2023-05-05T08:20:10.417Z,20.11
2023-05-05T08:21:10.384Z,20.06
2023-05-05T08:22:10.348Z,20.07
2023-05-05T08:23:31.325Z,20.13
2023-05-05T08:24:10.294Z,20.22
2023-05-05T08:25:10.292Z,20.19
2023-05-05T08:26:10.228Z,20.32
2023-05-05T08:27:10.209Z,20.29
2023-05-05T08:28:10.173Z,20.31
2023-05-05T08:29:31.756Z,20.28
2023-05-05T08:30:10.108Z,20.31
2023-05-05T08:31:10.133Z,20.41
2023-05-05T08:32:10.062Z,20.51
2023-05-05T08:33:10.052Z,20.62
2023-05-05T08:34:09.992Z,20.50
2023-05-05T08:35:30.961Z,20.48
2023-05-05T08:36:09.930Z,20.59
2023-05-05T08:37:09.907Z,20.41
2023-05-05T08:38:09.878Z,20.34
2023-05-05T08:39:09.854Z,20.48
2023-05-05T08:40:09.823Z,20.41
2023-05-05T08:41:30.785Z,20.52
2023-05-05T08:42:09.762Z,20.59
2023-05-05T08:43:09.730Z,20.56
2023-05-05T08:44:09.706Z,20.65
2023-05-05T08:45:10.453Z,20.67
2023-05-05T08:46:09.638Z,20.70
2023-05-05T08:47:30.650Z,20.70
2023-05-05T08:48:09.651Z,20.59
2023-05-05T08:49:09.545Z,20.72
2023-05-05T08:50:09.523Z,20.72
2023-05-05T08:51:09.495Z,20.77
2023-05-05T08:52:09.462Z,20.74
2023-05-05T08:53:30.422Z,20.80
2023-05-05T08:54:09.394Z,20.75
2023-05-05T08:55:09.482Z,20.92
2023-05-05T08:56:09.352Z,20.90
2023-05-05T08:57:09.309Z,21.02
2023-05-05T08:58:09.282Z,20.95
2023-05-05T08:59:30.256Z,20.95
2023-05-05T09:00:09.229Z,20.93
2023-05-05T09:01:09.310Z,21.06
2023-05-05T09:02:09.197Z,21.00
2023-05-05T09:03:09.279Z,21.12
2023-05-05T09:04:09.129Z,21.22
2023-05-05T09:05:30.084Z,21.18
2023-05-05T09:06:09.048Z,21.22
2023-05-05T09:07:09.033Z,21.24
2023-05-05T09:08:08.997Z,20.99
2023-05-05T09:09:08.960Z,21.09
2023-05-05T09:10:08.927Z,21.11
2023-05-05T09:11:29.896Z,21.11
2023-05-05T09:12:08.877Z,21.21
2023-05-05T09:13:08.919Z,21.18
2023-05-05T09:14:08.814Z,21.27
2023-05-05T09:15:09.042Z,21.36
2023-05-05T09:16:08.756Z,21.48
2023-05-05T09:17:29.751Z,21.54
2023-05-05T09:18:08.754Z,21.66
2023-05-05T09:19:08.671Z,21.61
2023-05-05T09:20:08.645Z,21.62
2023-05-05T09:21:08.609Z,21.67
2023-05-05T09:22:08.582Z,21.69
2023-05-05T09:23:29.551Z,21.83
2023-05-05T09:24:09.261Z,21.88
2023-05-05T09:25:08.730Z,22.00
2023-05-05T09:26:08.472Z,21.89
2023-05-05T09:27:08.434Z,21.62
2023-05-05T09:28:08.404Z,21.57
2023-05-05T09:29:29.383Z,21.61
2023-05-05T09:30:08.362Z,21.42
2023-05-05T09:31:08.364Z,21.54
2023-05-05T09:32:08.515Z,21.62
2023-05-05T09:33:08.447Z,21.70
2023-05-05T09:34:08.238Z,21.85
2023-05-05T09:35:29.215Z,21.89
2023-05-05T09:36:08.187Z,21.92
2023-05-05T09:37:08.150Z,21.64
2023-05-05T09:38:08.120Z,21.52
2023-05-05T09:39:08.099Z,21.48
2023-05-05T09:40:08.068Z,21.51
2023-05-05T09:41:29.034Z,21.62
2023-05-05T09:42:08.012Z,21.61
2023-05-05T09:43:07.991Z,21.57
2023-05-05T09:44:07.954Z,21.62
2023-05-05T09:45:08.049Z,21.70
2023-05-05T09:46:08.010Z,21.58
2023-05-05T09:47:30.169Z,21.67
2023-05-05T09:48:07.851Z,21.70
2023-05-05T09:49:07.880Z,21.80
2023-05-05T09:50:08.046Z,21.77
2023-05-05T09:51:07.750Z,21.88
2023-05-05T09:52:07.731Z,21.89
2023-05-05T09:53:28.687Z,21.88
2023-05-05T09:54:07.661Z,21.83
2023-05-05T09:55:07.631Z,21.80
2023-05-05T09:56:07.604Z,21.89
2023-05-05T09:57:07.574Z,21.85
2023-05-05T09:58:07.600Z,21.91
2023-05-05T09:59:28.516Z,21.91
2023-05-05T10:00:07.689Z,21.91
2023-05-05T10:01:07.493Z,22.00
2023-05-05T10:02:07.427Z,21.95
2023-05-05T10:03:07.442Z,22.02
2023-05-05T10:04:07.371Z,22.00
2023-05-05T10:05:28.471Z,22.11
2023-05-05T10:06:07.315Z,22.15
2023-05-05T10:07:07.290Z,22.08
2023-05-05T10:08:07.253Z,21.98
2023-05-05T10:09:07.225Z,21.83
2023-05-05T10:10:07.482Z,21.88
2023-05-05T10:11:28.165Z,21.96
2023-05-05T10:12:07.144Z,22.18
2023-05-05T10:13:07.147Z,22.23
2023-05-05T10:14:07.080Z,22.30
2023-05-05T10:15:07.057Z,22.43
2023-05-05T10:16:07.068Z,22.51
2023-05-05T10:17:28.014Z,22.53
2023-05-05T10:18:08.428Z,22.62
2023-05-05T10:19:06.935Z,22.65
2023-05-05T10:20:07.224Z,22.78
2023-05-05T10:21:07.203Z,22.73
2023-05-05T10:22:06.854Z,22.62
2023-05-05T10:23:27.820Z,22.65
2023-05-05T10:24:06.806Z,22.66
2023-05-05T10:25:06.799Z,22.65
2023-05-05T10:26:06.762Z,22.72
2023-05-05T10:27:06.728Z,22.76
2023-05-05T10:28:06.684Z,22.62
2023-05-05T10:29:27.654Z,22.43
2023-05-05T10:30:06.768Z,22.13
2023-05-05T10:31:16.549Z,21.79
2023-05-05T10:32:24.380Z,21.73
2023-05-05T10:33:27.257Z,21.85
2023-05-05T10:34:06.715Z,21.98
2023-05-05T10:35:27.492Z,22.10
2023-05-05T10:36:06.479Z,21.91
2023-05-05T10:37:06.508Z,21.12
2023-05-05T10:38:06.405Z,20.78
2023-05-05T10:39:06.386Z,20.81
2023-05-05T10:40:06.566Z,20.80
2023-05-05T10:41:27.339Z,20.66
2023-05-05T10:42:06.310Z,20.07
2023-05-05T10:43:06.261Z,19.54
2023-05-05T10:44:06.232Z,19.29
2023-05-05T10:45:06.237Z,19.34
2023-05-05T10:46:06.185Z,19.26
2023-05-05T10:47:27.161Z,19.11
2023-05-05T10:48:06.181Z,18.95
2023-05-05T10:49:06.121Z,18.66
2023-05-05T10:50:06.217Z,18.44
2023-05-05T10:51:06.026Z,18.29
2023-05-05T10:52:06.020Z,18.33
2023-05-05T10:53:27.012Z,18.13
2023-05-05T10:54:05.950Z,17.98
2023-05-05T10:55:05.904Z,17.82
2023-05-05T10:56:05.876Z,18.01
2023-05-05T10:57:05.853Z,18.10
2023-05-05T10:58:05.818Z,18.11
2023-05-05T10:59:26.787Z,17.95
2023-05-05T11:00:05.959Z,18.01
2023-05-05T11:01:05.769Z,18.05
2023-05-05T11:02:05.697Z,17.98
2023-05-05T11:03:05.731Z,17.90
2023-05-05T11:04:05.735Z,17.82
2023-05-05T11:05:26.595Z,17.89
2023-05-05T11:06:05.571Z,17.92
2023-05-05T11:07:05.538Z,17.98
2023-05-05T11:08:05.507Z,18.05
2023-05-05T11:09:05.478Z,17.92
2023-05-05T11:10:05.497Z,17.89
2023-05-05T11:11:26.409Z,17.86
2023-05-05T11:12:05.399Z,17.87
2023-05-05T11:13:05.354Z,17.71
2023-05-05T11:14:05.324Z,17.64
2023-05-05T11:15:05.279Z,17.57
2023-05-05T11:16:05.300Z,17.51
2023-05-05T11:17:26.243Z,17.44
2023-05-05T11:18:07.360Z,17.46
2023-05-05T11:19:05.160Z,17.42
2023-05-05T11:20:05.176Z,17.49
2023-05-05T11:21:05.092Z,17.57
2023-05-05T11:22:05.084Z,17.64
2023-05-05T11:23:26.033Z,17.64
2023-05-05T11:24:05.014Z,17.72
2023-05-05T11:25:04.975Z,17.82
2023-05-05T11:26:04.929Z,17.78
2023-05-05T11:27:04.905Z,17.85
2023-05-05T11:28:04.872Z,17.85
2023-05-05T11:29:25.847Z,17.87
2023-05-05T11:30:04.817Z,17.95
2023-05-05T11:31:04.790Z,17.97
2023-05-05T11:32:04.740Z,18.11
2023-05-05T11:33:04.720Z,18.08
2023-05-05T11:34:04.679Z,18.18
2023-05-05T11:35:25.650Z,18.18
2023-05-05T11:36:06.686Z,18.13
2023-05-05T11:37:04.590Z,18.29
2023-05-05T11:38:04.547Z,18.29
2023-05-05T11:39:04.522Z,18.44
2023-05-05T11:40:04.571Z,18.53
2023-05-05T11:41:25.529Z,18.60
2023-05-05T11:42:10.177Z,18.75
2023-05-05T11:43:04.408Z,18.80
2023-05-05T11:44:04.366Z,18.86
2023-05-05T11:45:04.328Z,18.95
2023-05-05T11:46:04.315Z,18.96
2023-05-05T11:47:25.304Z,19.00
2023-05-05T11:48:04.265Z,19.16
2023-05-05T11:49:04.216Z,19.16
2023-05-05T11:50:04.183Z,19.14
2023-05-05T11:51:04.151Z,19.24
2023-05-05T11:52:04.148Z,19.33
2023-05-05T11:53:25.079Z,19.33
2023-05-05T11:54:04.051Z,19.51
2023-05-05T11:55:04.042Z,19.55
2023-05-05T11:56:03.992Z,19.59
2023-05-05T11:57:04.108Z,19.74
2023-05-05T11:58:03.937Z,19.73
2023-05-05T11:59:24.894Z,19.79
2023-05-05T12:00:03.868Z,19.84
2023-05-05T12:01:03.836Z,19.89
2023-05-05T12:02:03.798Z,19.81
2023-05-05T12:03:03.861Z,19.91
2023-05-05T12:04:03.974Z,19.85
2023-05-05T12:05:24.711Z,19.84
2023-05-05T12:06:03.680Z,19.88
2023-05-05T12:07:03.655Z,19.99
2023-05-05T12:08:03.626Z,20.10
2023-05-05T12:09:03.602Z,20.19
2023-05-05T12:10:03.583Z,20.29
2023-05-05T12:11:24.530Z,20.39
2023-05-05T12:12:03.512Z,20.39
2023-05-05T12:13:03.606Z,20.43
2023-05-05T12:14:03.459Z,20.48
2023-05-05T12:15:03.413Z,20.63
2023-05-05T12:16:03.403Z,20.63
2023-05-05T12:17:24.398Z,20.70
2023-05-05T12:18:03.621Z,20.84
2023-05-05T12:19:03.296Z,20.82
2023-05-05T12:20:03.289Z,20.92
2023-05-05T12:21:03.232Z,20.93
2023-05-05T12:22:03.203Z,20.95
2023-05-05T12:23:24.180Z,20.87
2023-05-05T12:24:03.139Z,20.90
2023-05-05T12:25:03.130Z,20.85
2023-05-05T12:26:03.081Z,20.85
2023-05-05T12:27:03.050Z,20.87
2023-05-05T12:28:03.024Z,20.90
2023-05-05T12:29:23.988Z,20.96
2023-05-05T12:30:02.959Z,20.84
2023-05-05T12:31:03.008Z,20.95
2023-05-05T12:32:02.917Z,20.99
2023-05-05T12:33:02.892Z,21.03
2023-05-05T12:34:02.846Z,21.05
2023-05-05T12:35:23.811Z,21.09
2023-05-05T12:36:02.781Z,21.00
2023-05-05T12:37:02.750Z,20.77
2023-05-05T12:38:02.722Z,20.85
2023-05-05T12:39:02.700Z,20.85
2023-05-05T12:40:02.662Z,20.85
2023-05-05T12:41:23.637Z,20.99
2023-05-05T12:42:02.615Z,21.05
2023-05-05T12:43:02.573Z,21.12
2023-05-05T12:44:02.545Z,21.12
2023-05-05T12:45:02.572Z,21.20
2023-05-05T12:46:02.596Z,21.18
2023-05-05T12:47:23.453Z,21.32
2023-05-05T12:48:02.502Z,21.22
2023-05-05T12:49:02.404Z,21.20
2023-05-05T12:50:02.374Z,21.09
2023-05-05T12:51:02.345Z,21.12
2023-05-05T12:52:02.333Z,21.06